createdAt,value
2018-06-15T00:02:23.155Z,9.07
2018-06-15T00:04:51.283Z,9.47
2018-06-15T00:07:19.398Z,9.63
2018-06-15T00:09:47.532Z,8.73
2018-06-15T00:12:15.696Z,9.00
2018-06-15T00:14:43.811Z,9.40
2018-06-15T00:17:11.933Z,9.27
2018-06-15T00:19:40.062Z,9.07
2018-06-15T00:22:08.166Z,8.70
2018-06-15T00:24:36.407Z,9.10
2018-06-15T00:27:04.520Z,8.93
2018-06-15T00:29:32.656Z,8.67
2018-06-15T00:32:00.797Z,8.40
2018-06-15T00:34:28.923Z,10.07
2018-06-15T00:36:56.832Z,9.57
2018-06-15T00:39:24.943Z,9.33
2018-06-15T00:41:53.082Z,8.90
2018-06-15T00:44:21.187Z,9.07
2018-06-15T00:46:49.292Z,8.53
2018-06-15T00:49:23.207Z,8.73
2018-06-15T00:51:51.351Z,8.80
2018-06-15T00:54:19.500Z,8.10
2018-06-15T00:56:59.023Z,7.73
2018-06-15T00:59:27.155Z,8.27
2018-06-15T01:01:55.286Z,9.33
2018-06-15T01:04:23.432Z,8.47
2018-06-15T01:06:51.551Z,8.73
2018-06-15T01:09:19.679Z,8.50
2018-06-15T01:11:47.795Z,8.00
2018-06-15T01:14:15.918Z,8.47
2018-06-15T01:16:44.120Z,8.67
2018-06-15T01:19:12.249Z,8.40
2018-06-15T01:21:40.362Z,8.60
2018-06-15T01:24:08.475Z,8.87
2018-06-15T01:26:36.610Z,8.90
2018-06-15T01:29:04.757Z,8.60
2018-06-15T01:31:32.890Z,8.30
2018-06-15T01:34:01.019Z,9.30
2018-06-15T01:36:29.145Z,8.93
2018-06-15T01:38:57.106Z,9.00
2018-06-15T01:41:25.219Z,8.30
2018-06-15T01:43:53.320Z,8.27
2018-06-15T01:46:21.477Z,8.70
2018-06-15T01:48:49.671Z,8.73
2018-06-15T01:51:17.804Z,8.60
2018-06-15T01:53:45.947Z,8.80
2018-06-15T01:56:14.059Z,8.47
2018-06-15T01:58:42.262Z,8.63
2018-06-15T02:01:10.450Z,8.93
2018-06-15T02:03:38.523Z,7.77
2018-06-15T02:06:06.752Z,8.47
2018-06-15T02:08:34.855Z,7.50
2018-06-15T02:11:03.026Z,8.50
2018-06-15T02:13:31.184Z,10.43
2018-06-15T02:15:59.299Z,10.43
2018-06-15T02:18:27.576Z,10.27
2018-06-15T02:20:55.712Z,10.53
2018-06-15T02:23:30.623Z,10.70
2018-06-15T02:25:58.762Z,10.17
2018-06-15T02:28:26.893Z,10.60
2018-06-15T02:30:55.060Z,10.00
2018-06-15T02:33:23.191Z,9.93
2018-06-15T02:35:51.114Z,10.20
2018-06-15T02:38:19.239Z,9.70
2018-06-15T02:40:47.387Z,10.60
2018-06-15T02:43:15.516Z,9.63
2018-06-15T02:45:43.706Z,10.17
2018-06-15T02:48:11.810Z,11.23
2018-06-15T02:50:39.729Z,11.23
2018-06-15T02:53:08.000Z,11.20
2018-06-15T02:55:36.138Z,11.20
2018-06-15T02:58:04.315Z,10.87
2018-06-15T03:00:32.434Z,10.87
2018-06-15T03:03:00.556Z,10.30
2018-06-15T03:05:28.443Z,11.03
2018-06-15T03:07:56.570Z,10.77
2018-06-15T03:10:24.711Z,11.13
2018-06-15T03:12:52.866Z,10.50
2018-06-15T03:15:21.020Z,10.80
2018-06-15T03:17:49.183Z,10.83
2018-06-15T03:20:17.088Z,10.33
2018-06-15T03:22:45.247Z,10.50
2018-06-15T03:25:13.427Z,11.17
2018-06-15T03:27:41.555Z,11.93
2018-06-15T03:30:09.703Z,11.53
2018-06-15T03:32:37.850Z,10.47
2018-06-15T03:35:06.107Z,9.37
2018-06-15T03:37:34.305Z,10.57
2018-06-15T03:40:02.431Z,10.87
2018-06-15T03:42:30.590Z,11.03
2018-06-15T03:44:58.739Z,11.03
2018-06-15T03:47:26.909Z,11.13
2018-06-15T03:49:55.084Z,11.53
2018-06-15T03:52:23.268Z,11.30
2018-06-15T03:54:51.403Z,10.83
2018-06-15T03:57:19.555Z,11.97
2018-06-15T03:59:47.700Z,11.67
2018-06-15T04:02:15.836Z,11.00
2018-06-15T04:04:44.032Z,12.23
2018-06-15T04:07:12.195Z,12.13
2018-06-15T04:09:40.347Z,11.07
2018-06-15T04:12:08.534Z,11.73
2018-06-15T04:27:07.158Z,10.30
2018-06-15T04:29:35.306Z,10.07
2018-06-15T04:32:03.493Z,10.07
2018-06-15T04:34:31.609Z,11.03
2018-06-15T04:36:59.740Z,11.10
2018-06-15T04:39:27.891Z,10.43
2018-06-15T04:41:56.040Z,10.60
2018-06-15T04:44:24.203Z,11.13
2018-06-15T04:46:52.357Z,11.70
2018-06-15T04:49:20.596Z,11.97
2018-06-15T04:51:48.851Z,11.00
2018-06-15T04:54:17.015Z,10.23
2018-06-15T04:56:45.179Z,11.13
2018-06-15T04:59:13.315Z,11.50
2018-06-15T05:01:41.504Z,10.97
2018-06-15T05:04:09.463Z,11.27
2018-06-15T05:06:37.605Z,10.73
2018-06-15T05:09:07.549Z,11.27
2018-06-15T05:11:35.695Z,10.40
2018-06-15T05:14:03.841Z,10.90
2018-06-15T05:16:31.959Z,10.40
2018-06-15T05:19:00.104Z,9.83
2018-06-15T05:21:28.210Z,11.03
2018-06-15T05:23:56.348Z,11.07
2018-06-15T05:26:24.503Z,11.27
2018-06-15T05:28:52.630Z,10.73
2018-06-15T05:31:20.764Z,11.17
2018-06-15T05:33:49.035Z,10.47
2018-06-15T05:36:17.158Z,11.07
2018-06-15T05:38:45.395Z,11.53
2018-06-15T05:41:13.526Z,11.03
2018-06-15T05:43:41.677Z,10.80
2018-06-15T05:46:09.810Z,11.73
2018-06-15T05:48:37.947Z,12.13
2018-06-15T05:51:06.259Z,12.27
2018-06-15T05:53:34.382Z,11.60
2018-06-15T05:56:02.554Z,11.00
2018-06-15T05:58:30.442Z,11.57
2018-06-15T06:00:58.559Z,12.00
2018-06-15T06:03:26.683Z,11.77
2018-06-15T06:05:54.819Z,11.93
2018-06-15T06:08:22.942Z,11.77
2018-06-15T06:10:51.063Z,11.63
2018-06-15T06:13:19.535Z,12.87
2018-06-15T06:15:47.718Z,11.77
2018-06-15T06:18:15.852Z,11.87
2018-06-15T06:20:43.999Z,11.83
2018-06-15T06:23:12.175Z,12.57
2018-06-15T06:25:40.325Z,11.97
2018-06-15T06:28:08.471Z,12.20
2018-06-15T06:30:37.524Z,13.13
2018-06-15T06:33:05.660Z,11.80
2018-06-15T06:35:33.806Z,11.73
2018-06-15T06:38:02.014Z,11.73
2018-06-15T06:40:30.098Z,11.93
2018-06-15T06:42:58.229Z,10.97
2018-06-15T06:45:26.374Z,11.93
2018-06-15T06:47:54.486Z,11.00
2018-06-15T06:50:22.599Z,9.80
2018-06-15T06:52:50.722Z,9.23
2018-06-15T06:55:18.860Z,8.73
2018-06-15T06:57:46.975Z,8.37
2018-06-15T07:00:15.088Z,8.10
2018-06-15T07:02:43.582Z,7.97
2018-06-15T07:05:11.695Z,7.70
2018-06-15T07:07:39.840Z,8.13
2018-06-15T07:10:07.960Z,7.77
2018-06-15T07:12:36.087Z,8.43
2018-06-15T07:15:04.248Z,7.70
2018-06-15T07:17:32.370Z,8.13
2018-06-15T07:20:00.500Z,7.60
2018-06-15T07:22:28.623Z,8.50
2018-06-15T07:24:56.742Z,8.90
2018-06-15T07:27:24.882Z,8.23
2018-06-15T07:29:53.043Z,8.07
2018-06-15T07:32:21.173Z,8.40
2018-06-15T07:34:49.306Z,8.50
2018-06-15T07:37:17.532Z,8.30
2018-06-15T07:39:45.678Z,7.80
2018-06-15T07:42:13.807Z,7.40
2018-06-15T07:44:41.930Z,8.77
2018-06-15T07:47:10.120Z,8.50
2018-06-15T07:49:38.243Z,9.93
2018-06-15T07:52:06.383Z,9.43
2018-06-15T07:54:34.510Z,10.33
2018-06-15T07:57:02.658Z,9.90
2018-06-15T07:59:30.861Z,11.93
2018-06-15T08:01:58.923Z,11.27
2018-06-15T08:04:27.055Z,10.97
2018-06-15T08:06:55.207Z,11.90
2018-06-15T08:09:23.344Z,11.17
2018-06-15T08:11:51.492Z,11.30
2018-06-15T08:14:19.675Z,10.87
2018-06-15T08:16:47.806Z,11.27
2018-06-15T08:19:15.972Z,11.07
2018-06-15T08:21:44.103Z,10.97
2018-06-15T08:24:12.263Z,11.90
2018-06-15T08:26:40.431Z,10.30
2018-06-15T08:29:08.579Z,10.23
2018-06-15T08:31:36.743Z,11.23
2018-06-15T08:34:04.906Z,10.63
2018-06-15T08:36:33.051Z,9.23
2018-06-15T08:39:01.202Z,9.63
2018-06-15T08:41:29.343Z,8.80
2018-06-15T08:43:57.499Z,8.63
2018-06-15T08:46:25.640Z,8.60
2018-06-15T08:48:53.780Z,7.97
2018-06-15T08:51:21.923Z,8.63
2018-06-15T08:53:50.078Z,8.63
2018-06-15T08:56:18.213Z,8.03
2018-06-15T08:58:46.355Z,8.80
2018-06-15T09:01:14.496Z,8.10
2018-06-15T09:03:42.641Z,7.77
2018-06-15T09:06:10.771Z,8.47
2018-06-15T09:08:38.920Z,7.77
2018-06-15T09:11:07.055Z,7.83
2018-06-15T09:13:35.410Z,7.93
2018-06-15T09:16:03.594Z,7.43
2018-06-15T09:18:31.723Z,6.80
2018-06-15T09:20:59.879Z,6.10
2018-06-15T09:23:27.991Z,6.73
2018-06-15T09:25:56.143Z,6.60
2018-06-15T09:28:24.286Z,6.50
2018-06-15T09:30:52.721Z,7.83
2018-06-15T09:33:20.859Z,7.57
2018-06-15T09:35:49.796Z,7.37
2018-06-15T09:38:17.928Z,7.20
2018-06-15T09:40:46.067Z,7.87
2018-06-15T09:43:14.178Z,7.67
2018-06-15T09:45:42.363Z,6.90
2018-06-15T09:48:10.535Z,6.87
2018-06-15T09:50:38.690Z,7.07
2018-06-15T09:53:06.808Z,6.50
2018-06-15T09:55:34.964Z,6.47
2018-06-15T09:58:03.129Z,6.97
2018-06-15T10:00:36.550Z,7.50
2018-06-15T10:03:04.722Z,7.20
2018-06-15T10:05:32.856Z,7.53
2018-06-15T10:08:01.199Z,6.83
2018-06-15T10:10:29.322Z,7.30
2018-06-15T10:12:57.604Z,7.40
2018-06-15T10:15:25.775Z,7.27
2018-06-15T10:17:53.976Z,7.50
2018-06-15T10:20:22.131Z,7.37
2018-06-15T10:22:50.276Z,7.70
2018-06-15T10:25:18.431Z,7.10
2018-06-15T10:27:46.655Z,6.83
2018-06-15T10:30:14.801Z,7.27
2018-06-15T10:32:42.987Z,6.97
2018-06-15T10:35:11.103Z,6.80
2018-06-15T10:37:39.267Z,7.20
2018-06-15T10:40:07.428Z,6.90
2018-06-15T10:42:35.576Z,8.00
2018-06-15T10:45:03.726Z,6.57
2018-06-15T10:47:31.863Z,6.80
2018-06-15T10:50:00.012Z,6.97
2018-06-15T10:52:28.186Z,7.03
2018-06-15T10:54:56.507Z,7.13
2018-06-15T10:57:24.666Z,7.30
2018-06-15T10:59:52.803Z,7.70
2018-06-15T11:02:20.968Z,7.07
2018-06-15T11:04:49.095Z,7.37
2018-06-15T11:07:17.301Z,6.87
2018-06-15T11:09:45.443Z,7.23
2018-06-15T11:12:13.606Z,7.47
2018-06-15T11:14:41.741Z,7.20
2018-06-15T11:17:09.899Z,8.33
2018-06-15T11:19:38.051Z,7.37
2018-06-15T11:22:06.283Z,7.30
2018-06-15T11:24:34.403Z,7.90
2018-06-15T11:27:02.601Z,7.13
2018-06-15T11:29:30.827Z,7.20
2018-06-15T11:31:58.999Z,6.73
2018-06-15T11:34:27.138Z,6.50
2018-06-15T11:36:55.297Z,7.07
2018-06-15T11:39:23.426Z,6.57
2018-06-15T11:41:51.557Z,7.00
2018-06-15T11:44:19.716Z,7.07
2018-06-15T11:46:47.838Z,6.30
2018-06-15T11:49:15.970Z,11.80
2018-06-15T11:51:44.117Z,7.67
2018-06-15T11:54:12.229Z,7.33
2018-06-15T11:56:40.430Z,6.60
2018-06-15T11:59:08.567Z,7.10
2018-06-15T12:01:36.707Z,6.57
2018-06-15T12:04:04.834Z,6.73
2018-06-15T12:06:32.958Z,6.70
2018-06-15T12:09:01.072Z,6.67
2018-06-15T12:11:29.199Z,6.63
2018-06-15T12:13:57.342Z,6.87
2018-06-15T12:16:25.466Z,7.40
2018-06-15T12:18:53.985Z,7.07
2018-06-15T12:21:22.111Z,7.70
2018-06-15T12:23:50.304Z,6.77
2018-06-15T12:26:18.449Z,7.40
2018-06-15T12:28:46.558Z,7.17
2018-06-15T12:31:14.690Z,7.37
2018-06-15T12:33:42.821Z,7.90
2018-06-15T12:36:10.932Z,8.23
2018-06-15T12:38:39.108Z,8.20
2018-06-15T12:41:07.732Z,8.00
2018-06-15T12:43:35.874Z,7.00
2018-06-15T12:46:04.096Z,7.60
2018-06-15T12:48:32.141Z,7.87
2018-06-15T12:51:00.284Z,8.43
2018-06-15T12:53:28.716Z,8.20
2018-06-15T12:55:56.839Z,8.27
2018-06-15T12:58:25.015Z,7.73
2018-06-15T13:00:53.123Z,7.97
2018-06-15T13:03:21.256Z,7.60
2018-06-15T13:05:49.388Z,8.10
2018-06-15T13:08:17.573Z,7.57
2018-06-15T13:10:45.751Z,9.10
2018-06-15T13:13:13.958Z,8.40
2018-06-15T13:15:42.244Z,8.13
2018-06-15T13:18:10.363Z,7.93
2018-06-15T13:20:38.743Z,8.00
2018-06-15T13:23:06.883Z,8.17
2018-06-15T13:25:35.146Z,7.90
2018-06-15T13:28:03.310Z,8.10
2018-06-15T13:30:31.583Z,7.40
2018-06-15T13:32:59.729Z,7.33
2018-06-15T13:35:27.987Z,8.00
2018-06-15T13:37:56.147Z,7.77
2018-06-15T13:40:24.273Z,8.33
2018-06-15T13:42:52.403Z,7.87
2018-06-15T13:45:20.531Z,8.00
2018-06-15T13:47:48.699Z,8.00
2018-06-15T13:50:16.963Z,7.50
2018-06-15T13:52:45.082Z,8.87
2018-06-15T13:55:13.213Z,7.97
2018-06-15T13:57:41.455Z,8.43
2018-06-15T14:00:09.700Z,7.50
2018-06-15T14:02:37.836Z,8.00
2018-06-15T14:05:05.996Z,8.50
2018-06-15T14:07:34.114Z,7.90
2018-06-15T14:10:02.251Z,8.37
2018-06-15T14:12:30.430Z,8.17
2018-06-15T14:14:58.575Z,8.93
2018-06-15T14:17:26.706Z,8.27
2018-06-15T14:19:54.848Z,8.60
2018-06-15T14:22:22.974Z,8.07
2018-06-15T14:24:51.123Z,8.80
2018-06-15T14:27:19.270Z,8.47
2018-06-15T14:29:47.406Z,9.30
2018-06-15T14:32:15.530Z,9.00
2018-06-15T14:34:43.673Z,8.20
2018-06-15T14:37:11.805Z,7.33
2018-06-15T14:39:39.983Z,7.87
2018-06-15T14:42:08.127Z,7.43
2018-06-15T14:44:36.279Z,8.07
2018-06-15T14:47:04.415Z,7.30
2018-06-15T14:49:32.550Z,8.00
2018-06-15T14:52:00.699Z,8.00
2018-06-15T14:54:28.832Z,7.47
2018-06-15T14:56:56.959Z,8.60
2018-06-15T14:59:25.107Z,7.87
2018-06-15T15:01:53.266Z,8.00
2018-06-15T15:04:21.503Z,8.00
2018-06-15T15:06:49.643Z,8.00
2018-06-15T15:09:17.769Z,8.27
2018-06-15T15:11:45.933Z,7.90
2018-06-15T15:14:14.060Z,8.17
2018-06-15T15:16:42.186Z,7.77
2018-06-15T15:19:10.337Z,7.83
2018-06-15T15:21:38.462Z,7.53
2018-06-15T15:24:06.856Z,7.87
2018-06-15T15:26:34.980Z,8.40
2018-06-15T15:29:03.102Z,7.17
2018-06-15T15:31:31.228Z,8.00
2018-06-15T15:33:59.437Z,7.80
2018-06-15T15:36:27.582Z,7.60
2018-06-15T15:38:55.667Z,7.33
2018-06-15T15:41:23.810Z,6.77
2018-06-15T15:43:51.932Z,7.20
2018-06-15T15:46:20.051Z,7.50
2018-06-15T15:48:48.200Z,7.77
2018-06-15T15:51:16.411Z,7.60
2018-06-15T15:53:44.532Z,6.67
2018-06-15T15:56:12.709Z,7.17
2018-06-15T15:58:40.828Z,7.90
2018-06-15T16:01:08.951Z,7.40
2018-06-15T16:03:37.080Z,8.00
2018-06-15T16:06:05.258Z,7.57
2018-06-15T16:08:33.382Z,8.03
2018-06-15T16:11:01.490Z,7.43
2018-06-15T16:13:29.624Z,7.67
2018-06-15T16:15:57.759Z,8.00
2018-06-15T16:18:25.879Z,6.97
2018-06-15T16:20:54.007Z,6.90
2018-06-15T16:23:22.159Z,7.80
2018-06-15T16:25:50.287Z,7.93
2018-06-15T16:28:18.401Z,8.07
2018-06-15T16:30:46.586Z,8.23
2018-06-15T16:33:14.759Z,8.07
2018-06-15T16:35:42.935Z,7.90
2018-06-15T16:38:11.095Z,7.90
2018-06-15T16:40:39.224Z,7.63
2018-06-15T16:43:07.362Z,7.70
2018-06-15T16:45:35.533Z,6.73
2018-06-15T16:48:03.659Z,7.13
2018-06-15T16:50:31.803Z,7.33
2018-06-15T16:52:59.954Z,6.83
2018-06-15T16:55:28.151Z,7.67
2018-06-15T16:57:56.280Z,6.90
2018-06-15T17:00:24.406Z,6.53
2018-06-15T17:02:52.539Z,7.07
2018-06-15T17:05:20.667Z,6.80
2018-06-15T17:07:48.840Z,7.97
2018-06-15T17:10:16.982Z,7.20
2018-06-15T17:12:45.118Z,7.13
2018-06-15T17:15:13.250Z,6.60
2018-06-15T17:17:41.379Z,6.90
2018-06-15T17:20:09.513Z,6.67
2018-06-15T17:22:37.711Z,6.23
2018-06-15T17:25:05.848Z,7.17
2018-06-15T17:27:33.983Z,6.70
2018-06-15T17:30:02.108Z,6.67
2018-06-15T17:32:30.522Z,6.10
2018-06-15T17:34:58.757Z,6.70
2018-06-15T17:37:26.899Z,7.07
2018-06-15T17:39:55.051Z,6.73
2018-06-15T17:42:23.210Z,7.73
2018-06-15T17:44:51.376Z,7.90
2018-06-15T17:47:19.512Z,7.77
2018-06-15T17:49:47.664Z,7.63
2018-06-15T17:52:15.811Z,7.40
2018-06-15T17:54:43.944Z,7.60
2018-06-15T17:57:12.078Z,7.17
2018-06-15T17:59:40.223Z,7.47
2018-06-15T18:02:08.366Z,7.53
2018-06-15T18:04:36.500Z,7.40
2018-06-15T18:07:05.008Z,7.30
2018-06-15T18:09:33.158Z,6.60
2018-06-15T18:12:01.295Z,7.17
2018-06-15T18:14:29.442Z,7.60
2018-06-15T18:16:57.556Z,7.40
2018-06-15T18:19:25.662Z,7.03
2018-06-15T18:21:54.183Z,6.57
2018-06-15T18:24:22.307Z,6.67
2018-06-15T18:26:50.414Z,6.60
2018-06-15T18:29:18.561Z,7.07
2018-06-15T18:31:46.716Z,7.40
2018-06-15T18:34:14.837Z,7.33
2018-06-15T18:36:43.019Z,6.90
2018-06-15T18:39:13.258Z,7.37
2018-06-15T18:41:41.374Z,8.00
2018-06-15T18:44:09.902Z,7.70
2018-06-15T18:46:38.065Z,8.17
2018-06-15T18:49:06.203Z,7.67
2018-06-15T18:51:34.618Z,8.10
2018-06-15T18:54:02.774Z,8.30
2018-06-15T18:56:30.886Z,7.70
2018-06-15T18:58:59.010Z,7.83
2018-06-15T19:01:27.123Z,7.70
2018-06-15T19:03:55.439Z,8.30
2018-06-15T19:06:23.575Z,8.73
2018-06-15T19:08:51.703Z,8.43
2018-06-15T19:11:19.830Z,9.00
2018-06-15T19:13:47.950Z,9.07
2018-06-15T19:16:16.095Z,9.17
2018-06-15T19:18:44.203Z,9.20
2018-06-15T19:21:12.327Z,9.27
2018-06-15T19:23:40.460Z,9.23
2018-06-15T19:26:08.590Z,9.23
2018-06-15T19:28:36.702Z,9.83
2018-06-15T19:31:04.855Z,10.53
2018-06-15T19:33:32.968Z,9.17
2018-06-15T19:36:01.119Z,9.70
2018-06-15T19:38:29.273Z,9.50
2018-06-15T19:40:57.402Z,9.67
2018-06-15T19:43:25.528Z,9.17
2018-06-15T19:45:53.655Z,9.37
2018-06-15T19:48:21.555Z,9.73
2018-06-15T19:50:49.674Z,9.70
2018-06-15T19:53:17.823Z,10.17
2018-06-15T19:55:45.963Z,9.80
2018-06-15T19:58:14.086Z,9.70
2018-06-15T20:00:42.226Z,10.00
2018-06-15T20:03:10.332Z,10.37
2018-06-15T20:05:39.127Z,12.10
2018-06-15T20:08:07.246Z,12.17
2018-06-15T20:10:35.377Z,12.27
2018-06-15T20:13:03.503Z,13.33
2018-06-15T20:15:31.655Z,12.73
2018-06-15T20:17:59.795Z,12.23
2018-06-15T20:20:27.957Z,12.33
2018-06-15T20:22:56.104Z,11.57
2018-06-15T20:25:24.233Z,11.13
2018-06-15T20:27:52.150Z,11.50
2018-06-15T20:30:20.294Z,11.70
2018-06-15T20:32:48.438Z,12.10
2018-06-15T20:35:16.583Z,13.10
2018-06-15T20:37:44.746Z,11.87
2018-06-15T20:40:12.868Z,12.47
2018-06-15T20:42:41.043Z,11.50
2018-06-15T20:45:09.185Z,12.93
2018-06-15T20:47:37.338Z,11.57
2018-06-15T20:50:05.484Z,12.30
2018-06-15T20:52:33.616Z,12.10
2018-06-15T20:55:01.743Z,11.63
2018-06-15T20:57:29.878Z,12.67
2018-06-15T20:59:57.998Z,11.43
2018-06-15T21:02:26.154Z,12.73
2018-06-15T21:04:54.281Z,12.70
2018-06-15T21:07:22.416Z,12.13
2018-06-15T21:09:50.567Z,12.53
2018-06-15T21:12:18.703Z,12.90
2018-06-15T21:14:46.859Z,12.13
2018-06-15T21:17:14.999Z,12.03
2018-06-15T21:19:43.126Z,12.43
2018-06-15T21:22:11.278Z,12.37
2018-06-15T21:24:39.448Z,12.30
2018-06-15T21:27:07.618Z,12.10
2018-06-15T21:29:35.743Z,12.57
2018-06-15T21:32:03.915Z,12.00
2018-06-15T21:34:31.993Z,11.73
2018-06-15T21:37:00.146Z,12.13
2018-06-15T21:39:28.283Z,11.30
2018-06-15T21:41:56.422Z,11.87
2018-06-15T21:44:24.546Z,12.60
2018-06-15T21:46:52.680Z,12.93
2018-06-15T21:49:20.833Z,12.97
2018-06-15T21:51:48.963Z,13.37
2018-06-15T21:54:17.094Z,12.50
2018-06-15T21:56:45.269Z,13.70
2018-06-15T21:59:13.469Z,14.13
2018-06-15T22:01:41.580Z,13.30
2018-06-15T22:04:09.717Z,13.43
2018-06-15T22:06:37.847Z,14.00
2018-06-15T22:09:07.276Z,14.07
2018-06-15T22:11:35.395Z,13.07
2018-06-15T22:14:03.552Z,13.83
2018-06-15T22:16:37.068Z,13.73
2018-06-15T22:19:05.232Z,14.00
2018-06-15T22:21:33.356Z,14.00
2018-06-15T22:24:01.487Z,14.47
2018-06-15T22:26:29.661Z,14.07
2018-06-15T22:28:57.826Z,13.63
2018-06-15T22:31:25.741Z,14.40
2018-06-15T22:33:54.135Z,13.57
2018-06-15T22:36:22.295Z,13.70
2018-06-15T22:38:50.441Z,13.97
2018-06-15T22:41:18.592Z,13.90
2018-06-15T22:43:47.178Z,14.00
2018-06-15T22:46:15.313Z,14.70
2018-06-15T22:48:43.528Z,14.63
2018-06-15T22:51:11.702Z,13.20
2018-06-15T22:53:39.855Z,13.77
2018-06-15T22:56:08.460Z,14.07
2018-06-15T22:58:36.628Z,13.20
2018-06-15T23:01:04.887Z,13.80
2018-06-15T23:03:33.056Z,13.73
2018-06-15T23:06:01.211Z,13.63
2018-06-15T23:08:29.440Z,14.43
2018-06-15T23:10:57.590Z,14.07
2018-06-15T23:13:25.743Z,14.57
2018-06-15T23:15:53.903Z,15.20
2018-06-15T23:18:22.035Z,15.73
2018-06-15T23:20:50.179Z,15.20
2018-06-15T23:23:18.310Z,16.10
2018-06-15T23:25:46.471Z,16.43
2018-06-15T23:28:14.628Z,15.57
2018-06-15T23:30:42.783Z,14.47
2018-06-15T23:33:10.918Z,15.07
2018-06-15T23:35:39.067Z,14.10
2018-06-15T23:38:07.227Z,14.77
2018-06-15T23:40:35.399Z,14.67
2018-06-15T23:43:03.555Z,15.17
2018-06-15T23:45:31.831Z,15.00
2018-06-15T23:47:59.970Z,16.93
2018-06-15T23:50:28.124Z,17.73
2018-06-15T23:52:56.259Z,17.00
2018-06-15T23:55:24.410Z,17.60
2018-06-15T23:57:52.566Z,18.30
